sensor_id;sensor_type;location;lat;lon;timestamp;P1;durP1;ratioP1;P2;durP2;ratioP2
43861;SDS011;29510;52.140;5.034;2023-08-31T00:02:10;3.67;;;1.52;;
43861;SDS011;29510;52.140;5.034;2023-08-31T00:12:11;2.92;;;1.88;;
43861;SDS011;29510;52.140;5.034;2023-08-31T00:22:11;4.95;;;1.73;;
43861;SDS011;29510;52.140;5.034;2023-08-31T00:32:12;5.65;;;2.35;;
43861;SDS011;29510;52.140;5.034;2023-08-31T00:42:13;4.22;;;2.35;;
43861;SDS011;29510;52.140;5.034;2023-08-31T00:52:14;4.57;;;2.03;;
43861;SDS011;29510;52.140;5.034;2023-08-31T01:02:17;5.20;;;2.33;;
43861;SDS011;29510;52.140;5.034;2023-08-31T01:12:29;4.40;;;2.47;;
43861;SDS011;29510;52.140;5.034;2023-08-31T01:32:44;4.80;;;1.90;;
43861;SDS011;29510;52.140;5.034;2023-08-31T01:42:46;4.00;;;1.65;;
43861;SDS011;29510;52.140;5.034;2023-08-31T01:52:47;3.33;;;1.80;;
43861;SDS011;29510;52.140;5.034;2023-08-31T02:02:47;4.82;;;1.92;;
43861;SDS011;29510;52.140;5.034;2023-08-31T02:12:48;6.13;;;1.65;;
43861;SDS011;29510;52.140;5.034;2023-08-31T02:22:48;2.50;;;1.40;;
43861;SDS011;29510;52.140;5.034;2023-08-31T02:32:50;4.97;;;1.40;;
43861;SDS011;29510;52.140;5.034;2023-08-31T02:42:50;4.32;;;0.95;;
43861;SDS011;29510;52.140;5.034;2023-08-31T02:52:52;5.45;;;1.15;;
43861;SDS011;29510;52.140;5.034;2023-08-31T03:02:53;2.33;;;1.00;;
43861;SDS011;29510;52.140;5.034;2023-08-31T03:12:53;4.55;;;1.55;;
43861;SDS011;29510;52.140;5.034;2023-08-31T03:22:54;3.00;;;1.55;;
43861;SDS011;29510;52.140;5.034;2023-08-31T03:32:54;3.90;;;2.17;;
43861;SDS011;29510;52.140;5.034;2023-08-31T03:42:55;4.93;;;2.55;;
43861;SDS011;29510;52.140;5.034;2023-08-31T03:52:55;6.40;;;3.75;;
43861;SDS011;29510;52.140;5.034;2023-08-31T04:02:56;5.95;;;3.55;;
43861;SDS011;29510;52.140;5.034;2023-08-31T04:12:57;8.10;;;3.78;;
43861;SDS011;29510;52.140;5.034;2023-08-31T04:22:58;8.35;;;4.70;;
43861;SDS011;29510;52.140;5.034;2023-08-31T04:32:58;5.28;;;3.45;;
43861;SDS011;29510;52.140;5.034;2023-08-31T04:42:59;6.55;;;2.70;;
43861;SDS011;29510;52.140;5.034;2023-08-31T04:53:00;5.60;;;2.42;;
43861;SDS011;29510;52.140;5.034;2023-08-31T05:03:00;3.80;;;2.30;;
43861;SDS011;29510;52.140;5.034;2023-08-31T05:13:02;3.95;;;1.83;;
43861;SDS011;29510;52.140;5.034;2023-08-31T05:23:04;5.72;;;1.98;;
43861;SDS011;29510;52.140;5.034;2023-08-31T05:33:04;5.90;;;2.53;;
43861;SDS011;29510;52.140;5.034;2023-08-31T05:43:05;7.30;;;2.08;;
43861;SDS011;29510;52.140;5.034;2023-08-31T05:53:05;4.65;;;1.98;;
43861;SDS011;29510;52.140;5.034;2023-08-31T06:03:07;11.07;;;2.65;;
43861;SDS011;29510;52.140;5.034;2023-08-31T06:13:09;7.55;;;3.33;;
43861;SDS011;29510;52.140;5.034;2023-08-31T06:23:10;9.23;;;2.90;;
43861;SDS011;29510;52.140;5.034;2023-08-31T06:33:10;5.97;;;2.33;;
43861;SDS011;29510;52.140;5.034;2023-08-31T06:43:11;4.28;;;2.40;;
43861;SDS011;29510;52.140;5.034;2023-08-31T06:53:11;6.13;;;2.10;;
43861;SDS011;29510;52.140;5.034;2023-08-31T07:03:12;5.53;;;2.10;;
43861;SDS011;29510;52.140;5.034;2023-08-31T07:13:12;9.45;;;2.33;;
43861;SDS011;29510;52.140;5.034;2023-08-31T07:23:13;6.05;;;1.80;;
43861;SDS011;29510;52.140;5.034;2023-08-31T07:33:13;7.68;;;2.53;;
43861;SDS011;29510;52.140;5.034;2023-08-31T07:43:14;7.13;;;2.60;;
43861;SDS011;29510;52.140;5.034;2023-08-31T07:53:14;9.23;;;4.20;;
43861;SDS011;29510;52.140;5.034;2023-08-31T08:03:17;7.93;;;4.07;;
43861;SDS011;29510;52.140;5.034;2023-08-31T08:13:17;7.55;;;3.40;;
43861;SDS011;29510;52.140;5.034;2023-08-31T08:23:18;9.32;;;3.70;;
43861;SDS011;29510;52.140;5.034;2023-08-31T08:33:19;6.50;;;2.97;;
43861;SDS011;29510;52.140;5.034;2023-08-31T08:43:22;8.07;;;2.90;;
43861;SDS011;29510;52.140;5.034;2023-08-31T08:53:25;7.43;;;1.80;;
43861;SDS011;29510;52.140;5.034;2023-08-31T09:03:25;8.40;;;1.50;;
43861;SDS011;29510;52.140;5.034;2023-08-31T09:13:27;5.88;;;1.38;;
43861;SDS011;29510;52.140;5.034;2023-08-31T09:23:31;7.82;;;1.50;;
43861;SDS011;29510;52.140;5.034;2023-08-31T09:33:32;3.65;;;1.10;;
43861;SDS011;29510;52.140;5.034;2023-08-31T09:43:35;3.28;;;0.80;;
43861;SDS011;29510;52.140;5.034;2023-08-31T09:53:36;3.95;;;0.80;;
43861;SDS011;29510;52.140;5.034;2023-08-31T10:03:37;2.33;;;0.60;;
43861;SDS011;29510;52.140;5.034;2023-08-31T10:13:39;3.05;;;0.75;;
43861;SDS011;29510;52.140;5.034;2023-08-31T10:23:44;3.55;;;0.77;;
43861;SDS011;29510;52.140;5.034;2023-08-31T10:33:46;5.47;;;0.60;;
43861;SDS011;29510;52.140;5.034;2023-08-31T10:43:58;2.88;;;1.30;;
43861;SDS011;29510;52.140;5.034;2023-08-31T11:04:12;2.38;;;0.40;;
43861;SDS011;29510;52.140;5.034;2023-08-31T11:14:12;1.63;;;0.53;;
43861;SDS011;29510;52.140;5.034;2023-08-31T11:24:13;4.15;;;0.60;;
43861;SDS011;29510;52.140;5.034;2023-08-31T11:34:16;4.57;;;0.98;;
43861;SDS011;29510;52.140;5.034;2023-08-31T11:44:18;3.92;;;0.60;;
43861;SDS011;29510;52.140;5.034;2023-08-31T11:54:19;2.22;;;0.63;;
43861;SDS011;29510;52.140;5.034;2023-08-31T12:04:20;2.90;;;0.70;;
43861;SDS011;29510;52.140;5.034;2023-08-31T12:14:23;2.63;;;0.50;;
43861;SDS011;29510;52.140;5.034;2023-08-31T12:24:36;2.85;;;0.55;;
43861;SDS011;29510;52.140;5.034;2023-08-31T12:34:38;3.17;;;0.70;;
43861;SDS011;29510;52.140;5.034;2023-08-31T12:44:39;4.70;;;0.80;;
43861;SDS011;29510;52.140;5.034;2023-08-31T12:54:39;3.45;;;0.55;;
43861;SDS011;29510;52.140;5.034;2023-08-31T13:04:40;4.18;;;0.90;;
43861;SDS011;29510;52.140;5.034;2023-08-31T13:14:43;2.63;;;0.55;;
43861;SDS011;29510;52.140;5.034;2023-08-31T13:24:44;2.72;;;0.52;;
43861;SDS011;29510;52.140;5.034;2023-08-31T13:34:45;4.10;;;0.50;;
43861;SDS011;29510;52.140;5.034;2023-08-31T13:44:45;2.28;;;0.70;;
43861;SDS011;29510;52.140;5.034;2023-08-31T13:54:46;4.93;;;0.70;;
43861;SDS011;29510;52.140;5.034;2023-08-31T14:04:46;1.83;;;0.57;;
43861;SDS011;29510;52.140;5.034;2023-08-31T14:14:47;3.03;;;0.52;;
43861;SDS011;29510;52.140;5.034;2023-08-31T14:24:47;2.88;;;0.60;;
43861;SDS011;29510;52.140;5.034;2023-08-31T14:34:48;3.25;;;1.15;;
43861;SDS011;29510;52.140;5.034;2023-08-31T14:44:48;3.67;;;0.60;;
43861;SDS011;29510;52.140;5.034;2023-08-31T14:54:49;1.77;;;0.60;;
43861;SDS011;29510;52.140;5.034;2023-08-31T15:04:50;2.80;;;0.80;;
43861;SDS011;29510;52.140;5.034;2023-08-31T15:14:51;3.00;;;0.75;;
43861;SDS011;29510;52.140;5.034;2023-08-31T15:24:52;2.67;;;0.85;;
43861;SDS011;29510;52.140;5.034;2023-08-31T15:34:53;2.72;;;0.80;;
43861;SDS011;29510;52.140;5.034;2023-08-31T15:44:54;2.50;;;0.70;;
43861;SDS011;29510;52.140;5.034;2023-08-31T15:54:55;2.63;;;0.90;;
43861;SDS011;29510;52.140;5.034;2023-08-31T16:04:56;2.47;;;0.90;;
43861;SDS011;29510;52.140;5.034;2023-08-31T16:14:56;1.83;;;0.80;;
43861;SDS011;29510;52.140;5.034;2023-08-31T16:24:57;3.03;;;1.03;;
43861;SDS011;29510;52.140;5.034;2023-08-31T16:34:58;3.03;;;0.60;;
43861;SDS011;29510;52.140;5.034;2023-08-31T16:44:58;3.23;;;0.60;;
43861;SDS011;29510;52.140;5.034;2023-08-31T16:54:59;1.77;;;0.60;;
43861;SDS011;29510;52.140;5.034;2023-08-31T17:05:00;3.75;;;0.80;;
43861;SDS011;29510;52.140;5.034;2023-08-31T17:15:00;4.35;;;0.80;;
43861;SDS011;29510;52.140;5.034;2023-08-31T17:25:03;4.03;;;0.88;;
43861;SDS011;29510;52.140;5.034;2023-08-31T17:35:04;1.73;;;0.70;;
43861;SDS011;29510;52.140;5.034;2023-08-31T17:45:09;3.67;;;0.70;;
43861;SDS011;29510;52.140;5.034;2023-08-31T17:55:10;2.63;;;0.82;;
43861;SDS011;29510;52.140;5.034;2023-08-31T18:05:10;2.50;;;0.90;;
43861;SDS011;29510;52.140;5.034;2023-08-31T18:15:11;2.67;;;0.90;;
43861;SDS011;29510;52.140;5.034;2023-08-31T18:25:12;3.33;;;1.00;;
43861;SDS011;29510;52.140;5.034;2023-08-31T18:35:12;3.97;;;1.20;;
43861;SDS011;29510;52.140;5.034;2023-08-31T18:45:13;2.73;;;1.10;;
43861;SDS011;29510;52.140;5.034;2023-08-31T18:55:17;2.70;;;0.93;;
43861;SDS011;29510;52.140;5.034;2023-08-31T19:05:18;2.83;;;1.00;;
43861;SDS011;29510;52.140;5.034;2023-08-31T19:15:19;2.78;;;0.93;;
43861;SDS011;29510;52.140;5.034;2023-08-31T19:25:19;4.38;;;1.20;;
43861;SDS011;29510;52.140;5.034;2023-08-31T19:35:20;4.00;;;1.50;;
43861;SDS011;29510;52.140;5.034;2023-08-31T19:45:22;4.35;;;1.83;;
43861;SDS011;29510;52.140;5.034;2023-08-31T19:55:22;6.13;;;1.98;;
43861;SDS011;29510;52.140;5.034;2023-08-31T20:05:23;5.25;;;2.00;;
43861;SDS011;29510;52.140;5.034;2023-08-31T20:15:25;5.95;;;2.30;;
43861;SDS011;29510;52.140;5.034;2023-08-31T20:25:26;4.32;;;1.67;;
43861;SDS011;29510;52.140;5.034;2023-08-31T20:35:26;4.72;;;1.70;;
43861;SDS011;29510;52.140;5.034;2023-08-31T20:45:27;3.22;;;1.40;;
43861;SDS011;29510;52.140;5.034;2023-08-31T20:55:27;4.05;;;2.28;;
43861;SDS011;29510;52.140;5.034;2023-08-31T21:05:29;4.78;;;1.60;;
43861;SDS011;29510;52.140;5.034;2023-08-31T21:15:29;3.30;;;1.70;;
43861;SDS011;29510;52.140;5.034;2023-08-31T21:25:31;3.45;;;1.65;;
43861;SDS011;29510;52.140;5.034;2023-08-31T21:35:34;3.17;;;1.52;;
43861;SDS011;29510;52.140;5.034;2023-08-31T21:45:36;4.85;;;1.70;;
43861;SDS011;29510;52.140;5.034;2023-08-31T21:55:37;3.47;;;1.55;;
43861;SDS011;29510;52.140;5.034;2023-08-31T22:05:37;3.58;;;1.60;;
43861;SDS011;29510;52.140;5.034;2023-08-31T22:15:39;3.10;;;1.80;;
43861;SDS011;29510;52.140;5.034;2023-08-31T22:25:40;4.77;;;1.87;;
43861;SDS011;29510;52.140;5.034;2023-08-31T22:35:40;4.38;;;1.80;;
43861;SDS011;29510;52.140;5.034;2023-08-31T22:45:41;4.57;;;1.70;;
43861;SDS011;29510;52.140;5.034;2023-08-31T22:55:41;8.00;;;1.90;;
43861;SDS011;29510;52.140;5.034;2023-08-31T23:05:46;5.28;;;1.90;;
43861;SDS011;29510;52.140;5.034;2023-08-31T23:15:46;5.13;;;2.15;;
43861;SDS011;29510;52.140;5.034;2023-08-31T23:25:47;4.03;;;2.20;;
43861;SDS011;29510;52.140;5.034;2023-08-31T23:35:47;8.73;;;3.67;;
43861;SDS011;29510;52.140;5.034;2023-08-31T23:45:48;8.70;;;4.10;;
43861;SDS011;29510;52.140;5.034;2023-08-31T23:55:49;9.10;;;4.50;;
